East Hebron, New Hampshire
Current Conditions -  °F | °C
As of 4:55 AM on Sunday 23 Nov 2014 (Local Time) from K1P1 Reporting Station
Haze Haze  
Wind Chill: 34°   Ceiling: 3500
Heat Index: 34°   Visibility: 4mi
Dew Point: 34°   Wind: 0mph
Humidity: 100%   Direction: NA
Pressure: 30"   Gusts: NA
Location:  43.69°N, 71.77°W
Report Text: K1P1 230955Z AUTO 00000KT 4SM BR SCT030 BKN035 OVC080 01/01 A3000 RMK AO2 T00100010
Loading
Personal Weather Stations






























Interactive Weather Map New forecast layout! Learn more

10-Day Weather Forecast

Advertisements
Track Severe Weather on mobile